createdAt,value
2023-01-01T00:03:32.950Z,8.37
2023-01-01T00:07:14.767Z,10.69
2023-01-01T00:10:56.708Z,9.88
2023-01-01T00:14:38.656Z,9.65
2023-01-01T00:18:20.519Z,9.77
2023-01-01T00:22:20.956Z,12.19
2023-01-01T00:25:44.365Z,10.79
2023-01-01T00:29:26.309Z,10.23
2023-01-01T00:33:08.238Z,10.53
2023-01-01T00:36:50.044Z,10.54
2023-01-01T00:40:32.032Z,10.53
2023-01-01T00:44:13.999Z,13.85
2023-01-01T00:47:55.961Z,11.77
2023-01-01T00:51:37.809Z,8.46
2023-01-01T00:55:19.577Z,6.95
2023-01-01T00:59:01.854Z,7.93
2023-01-01T01:02:43.236Z,7.35
2023-01-01T01:06:25.029Z,12.42
2023-01-01T01:10:07.009Z,8.43
2023-01-01T01:13:48.797Z,9.60
2023-01-01T01:17:30.562Z,10.71
2023-01-01T01:21:12.331Z,8.29
2023-01-01T01:24:54.199Z,7.54
2023-01-01T01:28:36.083Z,11.91
2023-01-01T01:32:17.913Z,8.60
2023-01-01T01:35:59.717Z,10.36
2023-01-01T01:39:41.552Z,8.67
2023-01-01T01:43:23.364Z,8.32
2023-01-01T01:47:05.366Z,9.32
2023-01-01T01:50:47.127Z,6.57
2023-01-01T01:54:28.917Z,7.97
2023-01-01T01:58:10.536Z,4.10
2023-01-01T02:05:32.312Z,6.37
2023-01-01T02:09:13.874Z,3.25
2023-01-01T02:12:55.481Z,2.91
2023-01-01T02:16:37.148Z,6.70
2023-01-01T02:20:18.723Z,2.87
2023-01-01T02:24:00.463Z,6.88
2023-01-01T02:27:42.207Z,7.94
2023-01-01T02:31:24.026Z,5.24
2023-01-01T02:35:05.647Z,8.38
2023-01-01T02:38:47.496Z,10.22
2023-01-01T02:42:29.331Z,4.94
2023-01-01T02:46:11.188Z,7.49
2023-01-01T02:49:52.804Z,6.31
2023-01-01T02:53:34.715Z,12.25
2023-01-01T02:57:16.624Z,10.66
2023-01-01T03:00:58.648Z,9.33
2023-01-01T03:04:40.537Z,9.36
2023-01-01T03:08:22.443Z,6.30
2023-01-01T03:12:04.311Z,7.51
2023-01-01T03:15:46.363Z,11.45
2023-01-01T03:19:28.139Z,6.95
2023-01-01T03:23:10.069Z,8.57
2023-01-01T03:26:51.823Z,7.91
2023-01-01T03:30:33.815Z,9.25
2023-01-01T03:34:15.704Z,7.51
2023-01-01T03:37:57.650Z,8.86
2023-01-01T03:41:39.467Z,5.89
2023-01-01T03:45:21.301Z,7.83
2023-01-01T03:49:04.580Z,6.50
2023-01-01T03:52:45.200Z,10.48
2023-01-01T03:56:27.182Z,9.50
2023-01-01T04:00:10.135Z,14.00
2023-01-01T04:03:52.041Z,8.14
2023-01-01T04:07:33.786Z,9.44
2023-01-01T04:18:35.580Z,0.00
2023-01-01T04:22:17.081Z,2.22
2023-01-01T04:29:38.778Z,2.42
2023-01-01T04:37:00.467Z,3.79
2023-01-01T04:48:03.186Z,0.00
2023-01-01T04:59:05.957Z,0.00
2023-01-01T05:10:07.675Z,0.00
2023-01-01T05:21:09.433Z,0.00
2023-01-01T05:43:29.850Z,3.33
2023-01-01T05:47:11.430Z,1.70
2023-01-01T05:54:33.123Z,2.57
2023-01-01T06:05:34.867Z,0.00
2023-01-01T06:16:37.662Z,0.00
2023-01-01T06:27:39.307Z,0.00
2023-01-01T06:38:41.030Z,2.03
2023-01-01T06:46:02.807Z,2.13
2023-01-01T06:57:04.460Z,0.00
2023-01-01T07:04:26.222Z,3.94
2023-01-01T07:08:07.796Z,2.09
2023-01-01T07:11:49.520Z,4.83
2023-01-01T07:19:11.139Z,1.70
2023-01-01T07:22:52.827Z,2.88
2023-01-01T07:33:54.548Z,0.00
2023-01-01T07:44:56.315Z,0.00
2023-01-01T07:55:58.014Z,0.00
2023-01-01T08:06:59.787Z,0.00
2023-01-01T08:14:21.395Z,2.09
2023-01-01T08:18:03.073Z,4.22
2023-01-01T08:21:44.693Z,2.77
2023-01-01T08:25:26.340Z,2.76
2023-01-01T08:29:07.941Z,3.33
2023-01-01T08:32:50.528Z,2.09
2023-01-01T08:43:52.353Z,5.05
2023-01-01T08:51:13.988Z,3.52
2023-01-01T08:54:55.611Z,3.25
2023-01-01T09:05:57.405Z,0.00
2023-01-01T09:09:38.959Z,1.70
2023-01-01T09:17:00.640Z,3.04
2023-01-01T09:28:02.412Z,0.00
2023-01-01T09:39:04.126Z,0.00
2023-01-01T09:42:45.766Z,2.09
2023-01-01T09:53:47.488Z,0.00
2023-01-01T10:01:09.212Z,2.19
2023-01-01T10:04:50.731Z,3.01
2023-01-01T10:15:52.519Z,0.00
2023-01-01T10:26:54.203Z,0.00
2023-01-01T10:37:55.948Z,0.00
2023-01-01T10:41:37.515Z,2.25
2023-01-01T10:52:39.258Z,0.00
2023-01-01T11:03:41.021Z,0.00
2023-01-01T11:14:42.740Z,0.00
2023-01-01T11:25:44.505Z,0.00
2023-01-01T11:29:26.311Z,3.73
2023-01-01T11:40:28.069Z,0.00
2023-01-01T11:51:29.828Z,0.00
2023-01-01T12:02:31.558Z,0.00
2023-01-01T12:06:13.227Z,2.52
2023-01-01T12:09:54.945Z,2.94
2023-01-01T12:17:16.686Z,4.11
2023-01-01T12:20:58.504Z,3.41
2023-01-01T12:24:41.110Z,2.28
2023-01-01T12:35:42.890Z,0.00
2023-01-01T12:43:04.579Z,2.35
2023-01-01T12:50:26.215Z,2.09
2023-01-01T12:54:07.831Z,2.38
2023-01-01T12:57:49.425Z,2.03
2023-01-01T13:01:33.339Z,3.35
2023-01-01T13:12:33.036Z,0.00
2023-01-01T13:23:34.725Z,0.00
2023-01-01T13:34:36.497Z,0.00
2023-01-01T13:56:39.988Z,0.00
2023-01-01T14:07:51.329Z,0.00
2023-01-01T14:15:03.411Z,4.65
2023-01-01T14:22:25.060Z,1.83
2023-01-01T14:26:06.645Z,2.17
2023-01-01T14:37:08.400Z,0.00
2023-01-01T14:48:10.122Z,0.00
2023-01-01T14:59:11.897Z,0.00
2023-01-01T15:10:14.639Z,0.00
2023-01-01T15:21:16.425Z,0.00
2023-01-01T15:32:18.154Z,0.00
2023-01-01T15:43:19.926Z,0.00
2023-01-01T15:54:21.656Z,0.00
2023-01-01T16:05:23.439Z,0.00
2023-01-01T16:09:04.985Z,2.09
2023-01-01T16:16:26.775Z,3.50
2023-01-01T16:20:08.371Z,2.21
2023-01-01T16:27:30.290Z,7.01
2023-01-01T16:31:11.847Z,2.92
2023-01-01T16:34:53.522Z,2.09
2023-01-01T16:38:35.211Z,2.30
2023-01-01T16:42:16.912Z,4.56
2023-01-01T16:46:02.134Z,4.78
2023-01-01T16:49:40.435Z,6.64
2023-01-01T16:53:22.307Z,7.20
2023-01-01T16:57:05.045Z,5.20
2023-01-01T17:01:16.993Z,5.95
2023-01-01T17:04:58.501Z,4.79
2023-01-01T17:08:40.236Z,7.82
2023-01-01T17:16:02.950Z,2.41
2023-01-01T17:19:44.723Z,4.96
2023-01-01T17:23:26.464Z,6.46
2023-01-01T17:27:08.201Z,4.66
2023-01-01T17:30:49.955Z,5.76
2023-01-01T17:34:32.932Z,6.86
2023-01-01T17:38:14.730Z,4.80
2023-01-01T17:41:56.534Z,2.72
2023-01-01T17:45:40.314Z,5.74
2023-01-01T17:49:22.025Z,6.10
2023-01-01T17:53:04.149Z,6.12
2023-01-01T17:56:45.487Z,4.18
2023-01-01T18:04:07.285Z,4.71
2023-01-01T18:07:48.752Z,5.19
2023-01-01T18:11:30.531Z,4.63
2023-01-01T18:15:12.422Z,5.58
2023-01-01T18:18:54.265Z,4.08
2023-01-01T18:22:42.766Z,4.72
2023-01-01T18:26:18.040Z,8.96
2023-01-01T18:29:59.990Z,8.15
2023-01-01T18:33:42.097Z,8.01
2023-01-01T18:37:23.916Z,5.91
2023-01-01T18:41:05.656Z,4.59
2023-01-01T18:44:47.659Z,7.25
2023-01-01T18:48:29.457Z,6.86
2023-01-01T18:52:11.404Z,6.33
2023-01-01T18:55:53.311Z,7.67
2023-01-01T18:59:35.212Z,8.75
2023-01-01T19:03:18.236Z,8.20
2023-01-01T19:07:00.200Z,7.48
2023-01-01T19:10:42.367Z,9.10
2023-01-01T19:14:24.272Z,3.72
2023-01-01T19:18:07.032Z,4.09
2023-01-01T19:21:51.881Z,7.51
2023-01-01T19:25:30.766Z,7.31
2023-01-01T19:29:12.673Z,7.26
2023-01-01T19:32:54.667Z,9.69
2023-01-01T19:36:36.659Z,8.31
2023-01-01T19:40:18.743Z,9.04
2023-01-01T19:44:00.836Z,7.13
2023-01-01T19:47:42.783Z,8.37
2023-01-01T19:51:24.756Z,9.10
2023-01-01T19:55:07.626Z,10.10
2023-01-01T19:58:49.553Z,9.27
2023-01-01T20:02:48.119Z,8.04
2023-01-01T20:06:13.551Z,9.66
2023-01-01T20:09:56.412Z,6.92
2023-01-01T20:13:38.416Z,8.77
2023-01-01T20:17:20.391Z,6.87
2023-01-01T20:21:02.388Z,7.45
2023-01-01T20:24:44.445Z,10.47
2023-01-01T20:28:26.503Z,8.05
2023-01-01T20:32:08.727Z,9.58
2023-01-01T20:35:50.923Z,6.66
2023-01-01T20:39:33.055Z,9.54
2023-01-01T20:43:15.196Z,5.83
2023-01-01T20:46:57.173Z,7.14
2023-01-01T20:50:39.177Z,7.24
2023-01-01T20:54:21.046Z,7.39
2023-01-01T20:58:03.993Z,9.57
2023-01-01T21:01:46.150Z,7.03
2023-01-01T21:05:28.009Z,6.13
2023-01-01T21:09:10.252Z,10.42
2023-01-01T21:12:52.960Z,7.83
2023-01-01T21:16:34.978Z,12.02
2023-01-01T21:20:17.022Z,12.28
2023-01-01T21:23:59.117Z,15.02
2023-01-01T21:27:41.142Z,10.82
2023-01-01T21:31:23.165Z,13.36
2023-01-01T21:35:05.042Z,12.56
2023-01-01T21:38:48.042Z,10.26
2023-01-01T21:42:30.029Z,13.86
2023-01-01T21:46:11.977Z,9.08
2023-01-01T21:49:53.874Z,10.64
2023-01-01T21:53:35.837Z,11.68
2023-01-01T21:57:17.897Z,15.40
2023-01-01T22:00:59.782Z,13.02
2023-01-01T22:04:41.744Z,11.16
2023-01-01T22:08:23.724Z,9.20
2023-01-01T22:12:05.689Z,11.62
2023-01-01T22:15:47.707Z,10.00
2023-01-01T22:19:29.548Z,11.39
2023-01-01T22:23:11.472Z,9.47
2023-01-01T22:26:53.432Z,13.98
2023-01-01T22:30:35.427Z,14.71
2023-01-01T22:34:17.339Z,12.24
2023-01-01T22:37:59.292Z,12.34
2023-01-01T22:41:41.182Z,11.73
2023-01-01T22:45:25.170Z,13.62
2023-01-01T22:49:07.216Z,12.64
2023-01-01T22:52:49.208Z,12.66
2023-01-01T22:56:31.148Z,12.52
2023-01-01T23:00:19.147Z,13.16
2023-01-01T23:04:01.102Z,12.97
2023-01-01T23:07:43.060Z,13.00
2023-01-01T23:11:25.026Z,11.67
2023-01-01T23:15:06.999Z,14.17
2023-01-01T23:18:48.929Z,15.92
2023-01-01T23:22:30.820Z,12.78
2023-01-01T23:26:12.778Z,14.88
2023-01-01T23:29:54.710Z,9.85
2023-01-01T23:33:37.595Z,12.33
2023-01-01T23:37:19.522Z,12.28
2023-01-01T23:41:01.462Z,10.72
2023-01-01T23:44:43.390Z,11.54
2023-01-01T23:48:25.228Z,11.12
2023-01-01T23:52:07.173Z,16.49
2023-01-01T23:55:49.092Z,12.02
2023-01-01T23:59:30.926Z,9.80
